LIBF/FOG METAR and TAF weather

Enter ICAO airport designator
Station Type Date Time Source
LIBF METAR 2019/04/24 15:50 UTC NOAA

LIBF 241550Z 08010KT 9999 FEW035 22/16 Q1015


Station Type Date Time Source
LIBF Decoded METAR 2019/04/24 15:50 UTC NOAA

Station name not available
Apr 24, 2019 - 11:50 AM EDT / 2019.04.24 1550 UTC
Wind: from the E (080 degrees) at 12 MPH (10 KT):0
Visibility: greater than 7 mile(s):0
Sky conditions: mostly clear
Temperature: 71 F (22 C)
Dew Point: 60 F (16 C)
Relative Humidity: 68%
Pressure (altimeter): 29.97 in. Hg (1015 hPa)
ob: LIBF 241550Z 08010KT 9999 FEW035 22/16 Q1015
cycle: 16

Station Type Date Time Source
LIBF TAF 2015/04/03 06:00 UTC NOAA

TAF LIBF 030500Z 0306/0406 35014KT 9999 FEW030

Example: see airport list